Time;durP1;ratioP1;P1;durP2;ratioP2;P2;SDS_P1;SDS_P2;PMS_P1;PMS_P2;Temp;Humidity;BMP_temperature;BMP_pressure;BME280_temperature;BME280_humidity;BME280_pressure;Samples;Min_cycle;Max_cycle;Signal;HPM_P1;HPM_P2
2022/11/08 00:03:38;;;;;;;0.30;0.30;;;19.60;59.70;;;;;;6296649;28;20028;-67
2022/11/08 00:16:38;;;;;;;0.52;0.45;;;19.60;59.70;;;;;;6296479;28;20048;-66
2022/11/08 00:19:38;;;;;;;0.75;0.40;;;19.60;59.70;;;;;;6296468;28;20162;-65
2022/11/08 00:22:39;;;;;;;0.60;0.50;;;19.60;59.70;;;;;;6296078;28;20025;-67
2022/11/08 00:25:39;;;;;;;1.02;0.50;;;19.60;59.70;;;;;;6295959;28;20029;-66
2022/11/08 00:28:40;;;;;;;0.65;0.40;;;19.60;59.70;;;;;;6296327;28;20379;-68
2022/11/08 00:31:42;;;;;;;0.98;0.50;;;19.60;59.80;;;;;;6295701;28;20029;-67
2022/11/08 00:34:43;;;;;;;1.30;0.40;;;19.60;59.70;;;;;;6296243;28;20028;-66
2022/11/08 00:37:44;;;;;;;1.15;0.50;;;19.60;59.80;;;;;;6295873;28;20035;-67
2022/11/08 00:40:45;;;;;;;0.75;0.50;;;19.60;59.80;;;;;;6295713;28;20451;-67
2022/11/08 00:43:45;;;;;;;0.90;0.40;;;19.60;59.70;;;;;;6295683;28;20063;-66
2022/11/08 00:46:46;;;;;;;0.57;0.40;;;19.60;59.80;;;;;;6295318;28;20032;-65
2022/11/08 00:49:47;;;;;;;0.38;0.38;;;19.50;59.70;;;;;;6295802;28;20033;-66
2022/11/08 00:52:47;;;;;;;0.55;0.50;;;19.60;59.80;;;;;;6295380;28;20056;-67
2022/11/08 00:55:48;;;;;;;0.68;0.40;;;19.60;59.80;;;;;;6295488;28;20040;-66
2022/11/08 00:58:49;;;;;;;1.05;0.40;;;19.60;59.80;;;;;;6295936;28;20021;-67
2022/11/08 01:01:49;;;;;;;0.40;0.40;;;19.60;59.80;;;;;;6295048;28;20027;-67
2022/11/08 01:04:50;;;;;;;0.88;0.50;;;19.60;59.80;;;;;;6295220;28;20035;-66
2022/11/08 01:07:50;;;;;;;0.95;0.30;;;19.60;59.80;;;;;;6294946;28;20386;-67
2022/11/08 01:10:51;;;;;;;0.80;0.50;;;19.60;59.70;;;;;;6295133;28;20039;-67
2022/11/08 01:13:55;;;;;;;0.90;0.57;;;19.60;59.70;;;;;;6294633;28;20504;-66
2022/11/08 01:16:56;;;;;;;0.20;0.20;;;19.60;59.70;;;;;;6295008;28;20066;-68
2022/11/08 01:19:57;;;;;;;0.63;0.30;;;19.60;59.80;;;;;;6295170;28;20024;-67
2022/11/08 01:22:58;;;;;;;0.47;0.40;;;19.60;59.90;;;;;;6294479;28;20321;-67
2022/11/08 01:26:07;;;;;;;0.52;0.40;;;19.60;59.80;;;;;;6294748;28;20056;-66
2022/11/08 01:29:08;;;;;;;0.75;0.43;;;19.60;59.80;;;;;;6294445;28;20502;-67
2022/11/08 01:32:08;;;;;;;1.15;0.47;;;19.60;59.80;;;;;;6294713;28;20021;-68
2022/11/08 01:35:09;;;;;;;0.75;0.40;;;19.60;59.80;;;;;;6294469;28;20056;-67
2022/11/08 01:38:10;;;;;;;0.63;0.55;;;19.60;59.90;;;;;;6294574;28;20113;-67
2022/11/08 01:41:13;;;;;;;0.40;0.40;;;19.60;59.90;;;;;;6294602;28;20499;-68
2022/11/08 01:44:16;;;;;;;0.30;0.30;;;19.60;59.80;;;;;;6294315;28;20163;-68
2022/11/08 01:47:16;;;;;;;0.50;0.30;;;19.50;59.70;;;;;;6293893;28;20119;-67
2022/11/08 01:50:17;;;;;;;0.68;0.50;;;19.60;59.90;;;;;;6294939;28;20040;-67
2022/11/08 01:53:18;;;;;;;0.57;0.30;;;19.60;59.70;;;;;;6294000;28;20029;-67
2022/11/08 01:56:20;;;;;;;0.35;0.32;;;19.60;59.80;;;;;;6293875;28;20509;-67
2022/11/08 01:59:20;;;;;;;1.10;0.50;;;19.50;59.70;;;;;;6294262;28;20036;-68
2022/11/08 02:02:22;;;;;;;0.52;0.30;;;19.60;59.80;;;;;;6293910;28;20074;-68
2022/11/08 02:05:25;;;;;;;0.90;0.43;;;19.50;59.70;;;;;;6293709;28;20115;-67
2022/11/08 02:08:33;;;;;;;0.60;0.40;;;19.60;59.90;;;;;;6293495;28;20019;-67
2022/11/08 02:11:35;;;;;;;0.40;0.32;;;19.60;59.70;;;;;;6293842;28;20028;-68
2022/11/08 02:14:36;;;;;;;0.45;0.30;;;19.60;59.80;;;;;;6293080;28;20021;-66
2022/11/08 02:17:37;;;;;;;0.90;0.50;;;19.50;59.70;;;;;;6293431;28;20478;-67
2022/11/08 02:20:42;;;;;;;0.68;0.40;;;19.60;59.80;;;;;;6294194;28;20038;-67
2022/11/08 02:23:51;;;;;;;0.30;0.30;;;19.60;59.80;;;;;;6293304;28;20491;-67
2022/11/08 02:26:53;;;;;;;1.75;0.50;;;19.60;59.80;;;;;;6293143;28;20040;-67
2022/11/08 02:29:55;;;;;;;0.73;0.30;;;19.60;59.90;;;;;;6293846;28;20425;-67
2022/11/08 02:32:56;;;;;;;2.88;0.60;;;19.60;59.80;;;;;;6293228;28;20028;-67
2022/11/08 02:35:56;;;;;;;0.60;0.30;;;19.50;59.80;;;;;;6293521;28;20048;-66
2022/11/08 02:38:57;;;;;;;0.38;0.30;;;19.60;59.90;;;;;;6293715;28;20028;-67
2022/11/08 02:41:58;;;;;;;0.30;0.30;;;19.60;59.80;;;;;;6292788;28;20020;-67
2022/11/08 02:44:59;;;;;;;0.68;0.40;;;19.60;59.90;;;;;;6292723;28;20065;-67
2022/11/08 02:48:00;;;;;;;0.32;0.30;;;19.50;59.70;;;;;;6293001;28;20515;-67
2022/11/08 02:51:00;;;;;;;0.40;0.40;;;19.50;59.70;;;;;;6292898;28;20059;-67
2022/11/08 02:54:01;;;;;;;0.82;0.40;;;19.50;59.70;;;;;;6292700;28;20020;-67
2022/11/08 02:57:02;;;;;;;0.88;0.45;;;19.50;59.80;;;;;;6293090;28;20028;-67
2022/11/08 03:00:03;;;;;;;1.33;0.40;;;19.50;59.80;;;;;;6292456;28;20024;-67
2022/11/08 03:03:04;;;;;;;0.55;0.30;;;19.60;59.80;;;;;;6292450;28;20058;-67
2022/11/08 03:06:04;;;;;;;1.20;0.40;;;19.50;59.70;;;;;;6292382;28;20032;-68
2022/11/08 03:09:05;;;;;;;0.70;0.50;;;19.50;59.70;;;;;;6292304;28;20510;-67
2022/11/08 03:12:06;;;;;;;0.75;0.35;;;19.60;59.80;;;;;;6292804;28;20024;-66
2022/11/08 03:15:08;;;;;;;1.40;0.50;;;19.60;59.80;;;;;;6292637;28;20029;-67
2022/11/08 03:18:09;;;;;;;0.40;0.40;;;19.50;59.80;;;;;;6292583;28;20100;-67
2022/11/08 03:21:10;;;;;;;0.45;0.30;;;19.50;59.70;;;;;;6292527;28;20027;-68
2022/11/08 03:24:11;;;;;;;0.52;0.40;;;19.60;59.80;;;;;;6291996;28;20399;-67
2022/11/08 03:27:14;;;;;;;0.70;0.38;;;19.50;59.70;;;;;;6292348;28;20077;-66
2022/11/08 03:30:14;;;;;;;1.10;0.35;;;19.50;59.70;;;;;;6291876;28;20134;-67
2022/11/08 03:33:15;;;;;;;1.10;0.40;;;19.50;59.70;;;;;;6291940;28;20059;-68
2022/11/08 03:36:15;;;;;;;0.90;0.40;;;19.50;59.60;;;;;;6292196;28;20021;-66
2022/11/08 03:39:16;;;;;;;0.52;0.30;;;19.60;59.90;;;;;;6292117;28;20025;-67
2022/11/08 03:42:16;;;;;;;0.65;0.40;;;19.60;59.80;;;;;;6292450;28;20060;-68
2022/11/08 03:45:17;;;;;;;0.47;0.40;;;19.50;60.70;;;;;;6291982;28;20487;-68
2022/11/08 03:48:18;;;;;;;0.73;0.40;;;19.50;59.80;;;;;;6292051;28;20032;-67
2022/11/08 03:51:18;;;;;;;0.60;0.40;;;19.50;59.70;;;;;;6292151;28;20101;-67
2022/11/08 03:54:19;;;;;;;0.20;0.20;;;19.50;59.80;;;;;;6291799;28;20028;-68
2022/11/08 03:57:20;;;;;;;0.65;0.40;;;19.50;59.80;;;;;;6292298;28;20063;-67
2022/11/08 04:00:25;;;;;;;0.38;0.38;;;19.50;59.70;;;;;;6291916;28;20483;-67
2022/11/08 04:03:26;;;;;;;0.32;0.20;;;19.50;59.80;;;;;;6292075;28;20031;-66
2022/11/08 04:06:27;;;;;;;0.77;0.40;;;19.50;59.80;;;;;;6292052;28;20029;-67
2022/11/08 04:09:27;;;;;;;0.40;0.38;;;19.50;59.70;;;;;;6291413;28;20109;-67
2022/11/08 04:15:52;;;;;;;0.35;0.30;;;19.50;59.80;;;;;;6291046;28;20025;-65
2022/11/08 04:22:12;;;;;;;0.63;0.40;;;19.50;59.80;;;;;;6291586;28;20437;-66
2022/11/08 04:25:12;;;;;;;0.85;0.30;;;19.50;59.70;;;;;;6291294;28;20074;-66
2022/11/08 04:28:13;;;;;;;0.82;0.35;;;19.50;59.80;;;;;;6291414;28;20074;-66
2022/11/08 04:31:16;;;;;;;0.93;0.30;;;19.50;59.70;;;;;;6292097;28;20029;-66
2022/11/08 04:34:17;;;;;;;0.80;0.38;;;19.50;59.70;;;;;;6291672;28;20375;-67
2022/11/08 04:37:17;;;;;;;0.93;0.32;;;19.50;59.60;;;;;;6291779;28;20028;-67
2022/11/08 04:40:18;;;;;;;1.10;0.30;;;19.50;59.80;;;;;;6295228;28;20032;-67
2022/11/08 04:43:18;;;;;;;0.98;0.40;;;19.50;59.70;;;;;;6295972;28;20444;-67
2022/11/08 04:46:22;;;;;;;1.00;0.40;;;19.50;59.80;;;;;;6296040;28;20114;-66
2022/11/08 04:49:22;;;;;;;0.80;0.40;;;19.50;59.80;;;;;;6295616;28;20027;-67
2022/11/08 04:52:23;;;;;;;0.60;0.30;;;19.50;59.80;;;;;;6295706;28;20048;-67
2022/11/08 04:55:25;;;;;;;0.60;0.40;;;19.50;59.80;;;;;;6295504;28;20051;-67
2022/11/08 04:58:25;;;;;;;0.32;0.32;;;19.50;59.80;;;;;;6296236;28;20483;-67
2022/11/08 05:01:28;;;;;;;0.32;0.28;;;19.50;59.80;;;;;;6295416;28;20093;-67
2022/11/08 05:04:29;;;;;;;0.40;0.32;;;19.50;59.70;;;;;;6295490;28;20020;-66
2022/11/08 05:07:29;;;;;;;0.20;0.20;;;19.50;59.80;;;;;;6295178;28;20074;-67
2022/11/08 05:10:30;;;;;;;0.88;0.50;;;19.50;59.70;;;;;;6294974;28;20029;-67
2022/11/08 05:13:31;;;;;;;0.40;0.40;;;19.50;59.80;;;;;;6295630;28;20468;-68
2022/11/08 05:16:32;;;;;;;0.68;0.43;;;19.50;59.70;;;;;;6294872;28;20021;-67
2022/11/08 05:26:19;;;;;;;1.10;0.30;;;19.50;59.70;;;;;;6282248;28;20036;-67
2022/11/08 05:29:19;;;;;;;0.50;0.30;;;19.50;59.80;;;;;;6294966;28;20029;-67
2022/11/08 05:32:20;;;;;;;0.55;0.35;;;19.50;59.70;;;;;;6295068;28;20137;-67
2022/11/08 05:35:21;;;;;;;0.70;0.40;;;19.50;59.70;;;;;;6295007;28;20025;-67
2022/11/08 05:38:22;;;;;;;0.45;0.30;;;19.50;59.70;;;;;;6294511;28;20024;-67
2022/11/08 05:41:24;;;;;;;0.30;0.30;;;19.50;59.50;;;;;;6294131;28;20403;-68
2022/11/08 05:44:24;;;;;;;1.10;0.45;;;19.50;59.70;;;;;;6294218;28;20060;-67
2022/11/08 05:47:25;;;;;;;0.40;0.40;;;19.50;59.70;;;;;;6294277;28;20470;-66
2022/11/08 05:50:25;;;;;;;0.70;0.50;;;19.50;59.80;;;;;;6292850;28;20053;-66
2022/11/08 05:53:26;;;;;;;0.35;0.20;;;19.50;59.70;;;;;;6294511;28;20024;-66
2022/11/08 05:56:27;;;;;;;0.45;0.30;;;19.50;59.70;;;;;;6294087;28;20498;-66
2022/11/08 05:59:27;;;;;;;0.57;0.43;;;19.50;59.80;;;;;;6294058;28;20025;-67
2022/11/08 06:02:31;;;;;;;0.73;0.40;;;19.50;59.80;;;;;;6279627;28;20480;-68
2022/11/08 06:05:33;;;;;;;1.10;0.40;;;19.50;59.80;;;;;;6269597;28;20099;-67
2022/11/08 06:08:35;;;;;;;1.33;0.50;;;19.50;59.70;;;;;;6293876;28;20031;-66
2022/11/08 06:11:37;;;;;;;0.73;0.40;;;19.50;59.70;;;;;;6293476;28;20507;-67
2022/11/08 06:14:37;;;;;;;0.95;0.47;;;19.50;59.80;;;;;;6293881;28;20052;-68
2022/11/08 06:17:38;;;;;;;0.40;0.30;;;19.50;60.40;;;;;;6293982;28;20035;-66
2022/11/08 06:20:38;;;;;;;0.95;0.32;;;19.50;59.70;;;;;;6292920;28;20028;-66
2022/11/08 06:23:39;;;;;;;0.75;0.40;;;19.50;59.70;;;;;;6281095;28;20494;-67
2022/11/08 06:26:40;;;;;;;1.15;0.43;;;19.50;59.80;;;;;;6289981;28;20040;-66
2022/11/08 06:29:41;;;;;;;1.42;0.45;;;19.50;59.70;;;;;;6285112;28;20024;-66
2022/11/08 06:32:41;;;;;;;3.63;0.30;;;19.50;59.50;;;;;;6293171;28;20058;-67
2022/11/08 06:35:42;;;;;;;0.80;0.30;;;19.60;59.60;;;;;;6306821;28;20029;-66
2022/11/08 06:38:43;;;;;;;2.35;0.40;;;19.70;60.30;;;;;;6294342;28;20108;-67
2022/11/08 06:41:43;;;;;;;0.93;0.40;;;19.70;59.60;;;;;;6293389;28;20032;-67
2022/11/08 06:44:44;;;;;;;0.80;0.35;;;19.70;59.50;;;;;;6293412;28;20033;-67
2022/11/08 06:47:45;;;;;;;4.57;0.60;;;19.70;59.20;;;;;;6293603;28;20027;-66
2022/11/08 06:50:45;;;;;;;0.50;0.22;;;19.80;59.00;;;;;;6293290;28;20044;-67
2022/11/08 06:53:47;;;;;;;0.70;0.40;;;19.80;59.40;;;;;;6293529;28;20025;-67
2022/11/08 06:56:47;;;;;;;0.45;0.32;;;19.70;59.30;;;;;;6293388;28;20214;-67
2022/11/08 06:59:48;;;;;;;0.60;0.40;;;19.70;59.30;;;;;;6288599;28;20021;-67
2022/11/08 07:02:56;;;;;;;0.95;0.50;;;19.70;59.40;;;;;;6294586;28;20021;-68
2022/11/08 07:06:00;;;;;;;1.30;0.50;;;19.70;59.50;;;;;;6295402;28;20032;-67
2022/11/08 07:09:00;;;;;;;2.60;0.40;;;19.70;59.50;;;;;;6291088;28;20063;-67
2022/11/08 07:12:01;;;;;;;2.72;0.57;;;19.70;59.50;;;;;;6295161;28;20410;-67
2022/11/08 07:15:02;;;;;;;0.52;0.30;;;19.70;59.50;;;;;;6295631;28;20027;-67
2022/11/08 07:18:05;;;;;;;1.02;0.60;;;19.70;59.60;;;;;;6295027;28;20025;-66
2022/11/08 07:21:06;;;;;;;0.88;0.45;;;19.70;59.60;;;;;;6295328;28;20491;-66
2022/11/08 07:24:06;;;;;;;1.30;0.45;;;19.70;59.50;;;;;;6293766;28;20020;-67
2022/11/08 07:27:07;;;;;;;1.45;0.70;;;19.70;59.30;;;;;;6295311;28;20027;-67
2022/11/08 07:30:08;;;;;;;0.60;0.40;;;19.80;59.30;;;;;;6295283;28;20029;-68
2022/11/08 07:33:09;;;;;;;0.70;0.50;;;19.80;59.10;;;;;;6295272;28;20027;-67
2022/11/08 07:36:09;;;;;;;0.73;0.38;;;19.80;59.10;;;;;;6294659;28;20029;-67
2022/11/08 07:39:10;;;;;;;3.25;0.55;;;19.90;59.20;;;;;;6294995;28;20020;-67
2022/11/08 07:42:11;;;;;;;1.98;0.38;;;19.90;59.20;;;;;;6294687;28;20031;-67
2022/11/08 07:45:11;;;;;;;2.30;0.55;;;19.90;59.30;;;;;;6295086;28;20059;-67
2022/11/08 07:48:12;;;;;;;4.53;0.40;;;19.90;59.10;;;;;;6295014;28;20017;-66
2022/11/08 07:51:13;;;;;;;0.98;0.50;;;19.90;59.10;;;;;;6294531;28;20120;-67
2022/11/08 07:54:13;;;;;;;2.10;0.50;;;19.90;59.00;;;;;;6295131;28;20054;-66
2022/11/08 07:57:14;;;;;;;0.98;0.43;;;19.90;59.00;;;;;;6294568;28;20020;-66
2022/11/08 08:00:15;;;;;;;1.63;0.47;;;19.90;59.10;;;;;;6295160;28;20017;-67
2022/11/08 08:03:16;;;;;;;2.92;0.60;;;20.00;58.90;;;;;;6293311;28;20108;-66
2022/11/08 08:06:17;;;;;;;2.30;0.50;;;19.90;59.00;;;;;;6293849;28;20039;-67
2022/11/08 08:09:17;;;;;;;1.20;0.40;;;19.90;59.00;;;;;;6294722;28;20540;-66
2022/11/08 08:12:18;;;;;;;0.65;0.47;;;19.90;59.00;;;;;;6287130;28;20029;-66
2022/11/08 08:15:19;;;;;;;2.58;0.57;;;19.90;59.30;;;;;;6299051;28;20810;-67
2022/11/08 08:18:20;;;;;;;4.20;0.90;;;19.90;59.30;;;;;;6299238;28;20056;-67
2022/11/08 08:21:21;;;;;;;0.98;0.55;;;19.90;59.30;;;;;;6298503;28;20059;-67
2022/11/08 08:24:21;;;;;;;0.40;0.35;;;19.80;59.30;;;;;;6299026;28;20025;-67
2022/11/08 08:27:22;;;;;;;1.83;0.50;;;19.80;59.30;;;;;;6298988;28;20032;-66
2022/11/08 08:30:23;;;;;;;1.75;0.60;;;19.80;59.40;;;;;;6299327;28;20067;-67
2022/11/08 08:33:24;;;;;;;1.80;0.60;;;19.80;59.40;;;;;;6298832;28;20052;-66
2022/11/08 08:36:24;;;;;;;1.40;0.60;;;19.80;59.40;;;;;;6299227;28;20027;-67
2022/11/08 08:39:25;;;;;;;1.70;0.60;;;19.80;59.40;;;;;;6299442;28;20024;-67
2022/11/08 08:42:26;;;;;;;1.48;0.40;;;19.80;59.50;;;;;;6298786;28;20344;-67
2022/11/08 08:45:26;;;;;;;0.57;0.40;;;19.80;59.40;;;;;;6299309;28;20028;-67
2022/11/08 08:48:28;;;;;;;2.97;0.40;;;19.80;59.50;;;;;;6289221;28;20021;-67
2022/11/08 08:51:28;;;;;;;1.40;0.47;;;19.80;59.50;;;;;;6299078;28;20048;-67
2022/11/08 08:54:29;;;;;;;3.45;0.40;;;19.80;59.50;;;;;;6298528;28;20502;-67
2022/11/08 08:57:29;;;;;;;3.25;0.50;;;19.80;59.50;;;;;;6298684;28;20028;-66
2022/11/08 09:00:31;;;;;;;1.55;0.73;;;19.80;59.50;;;;;;6289248;28;20166;-67
2022/11/08 09:03:33;;;;;;;0.90;0.55;;;19.80;59.50;;;;;;6298245;28;20017;-66
2022/11/08 09:06:34;;;;;;;1.38;0.50;;;19.80;59.50;;;;;;6285820;28;20059;-65
2022/11/08 09:09:35;;;;;;;0.73;0.30;;;19.80;59.30;;;;;;6286641;28;20028;-66
2022/11/08 09:12:36;;;;;;;1.17;0.57;;;19.90;59.50;;;;;;6296930;28;20112;-67
2022/11/08 09:15:38;;;;;;;1.67;0.68;;;19.90;59.50;;;;;;6298700;28;20108;-67
2022/11/08 09:18:39;;;;;;;1.10;0.60;;;19.80;59.40;;;;;;6298002;28;20051;-66
2022/11/08 09:21:39;;;;;;;0.60;0.40;;;19.80;59.50;;;;;;6298318;28;20024;-67
2022/11/08 09:24:40;;;;;;;0.50;0.40;;;19.80;59.60;;;;;;6296285;28;20028;-65
2022/11/08 09:27:40;;;;;;;1.98;0.50;;;19.80;59.60;;;;;;6290144;28;20039;-67
2022/11/08 09:30:41;;;;;;;0.80;0.52;;;19.80;59.70;;;;;;6298564;28;20348;-67
2022/11/08 09:33:42;;;;;;;0.40;0.32;;;19.80;59.70;;;;;;6297655;28;20506;-67
2022/11/08 09:36:42;;;;;;;3.22;0.52;;;19.80;59.80;;;;;;6298133;28;20328;-66
2022/11/08 09:39:43;;;;;;;3.47;0.60;;;19.80;59.80;;;;;;6297348;28;20034;-67
2022/11/08 09:42:58;;;;;;;0.50;0.40;;;19.80;59.80;;;;;;6298050;28;20368;-67
2022/11/08 09:45:58;;;;;;;0.90;0.57;;;19.80;59.90;;;;;;6278708;28;20802;-67
2022/11/08 09:49:02;;;;;;;0.52;0.32;;;19.80;59.90;;;;;;6296110;28;20082;-67
2022/11/08 09:52:04;;;;;;;1.02;0.43;;;19.80;59.90;;;;;;6297373;28;20045;-67
2022/11/08 09:55:24;;;;;;;2.33;0.45;;;19.80;59.90;;;;;;6297603;28;20486;-67
2022/11/08 09:58:36;;;;;;;1.65;0.50;;;19.70;59.90;;;;;;6297355;28;20048;-67
2022/11/08 10:01:38;;;;;;;1.15;0.47;;;19.80;59.90;;;;;;6297305;28;20020;-67
2022/11/08 10:04:39;;;;;;;2.95;0.50;;;19.70;59.90;;;;;;6285165;28;20055;-67
2022/11/08 10:08:05;;;;;;;0.40;0.40;;;19.70;59.90;;;;;;6296714;28;20086;-67
2022/11/08 10:11:31;;;;;;;0.80;0.50;;;19.70;59.80;;;;;;6289150;28;20024;-67
2022/11/08 10:14:35;;;;;;;0.75;0.47;;;19.70;60.00;;;;;;6282409;28;20029;-67
2022/11/08 10:18:13;;;;;;;1.00;0.50;;;19.70;60.00;;;;;;6287108;28;20099;-67
2022/11/08 10:21:29;;;;;;;4.40;0.50;;;19.70;60.00;;;;;;6296483;28;20025;-67
2022/11/08 10:25:01;;;;;;;1.63;0.43;;;19.70;60.00;;;;;;6284851;28;20027;-67
2022/11/08 10:28:05;;;;;;;2.47;0.73;;;19.70;60.00;;;;;;6276469;28;20033;-67
2022/11/08 10:31:06;;;;;;;2.05;0.73;;;19.70;60.10;;;;;;6297100;28;20021;-67
2022/11/08 10:34:22;;;;;;;1.52;0.88;;;19.70;60.00;;;;;;6286587;28;20027;-67
2022/11/08 10:37:24;;;;;;;4.45;1.20;;;19.70;59.50;;;;;;6291331;28;20055;-67
2022/11/08 10:40:40;;;;;;;3.10;0.93;;;19.70;59.40;;;;;;6296506;28;20469;-67
2022/11/08 10:43:47;;;;;;;2.95;1.30;;;19.70;59.50;;;;;;6296590;28;20373;-67
2022/11/08 10:46:55;;;;;;;1.80;1.00;;;19.70;59.30;;;;;;6284440;28;20440;-67
2022/11/08 10:49:57;;;;;;;4.70;1.45;;;19.70;59.30;;;;;;6296335;28;20028;-67
2022/11/08 10:53:00;;;;;;;4.13;1.58;;;19.70;59.20;;;;;;6295484;28;20060;-67
2022/11/08 10:56:03;;;;;;;4.97;1.77;;;19.70;59.30;;;;;;6295241;28;20042;-67
2022/11/08 10:59:04;;;;;;;5.82;2.15;;;19.70;59.20;;;;;;6282479;28;20021;-66
2022/11/08 11:02:41;;;;;;;3.08;1.20;;;19.70;59.00;;;;;;6292927;28;20082;-67
2022/11/08 11:05:53;;;;;;;5.72;1.40;;;19.70;59.10;;;;;;6295327;28;20052;-67
2022/11/08 11:08:57;;;;;;;5.40;1.70;;;19.70;58.90;;;;;;6295516;28;20024;-67
2022/11/08 11:12:05;;;;;;;7.55;1.83;;;19.70;59.00;;;;;;6293184;28;20025;-67
2022/11/08 11:15:14;;;;;;;6.65;1.55;;;19.70;59.50;;;;;;6286286;28;20032;-67
2022/11/08 11:18:34;;;;;;;4.93;1.38;;;19.70;58.70;;;;;;6294250;28;20062;-68
2022/11/08 11:21:37;;;;;;;3.58;1.65;;;19.70;58.80;;;;;;6295808;28;20427;-67
2022/11/08 11:24:51;;;;;;;4.85;1.50;;;19.70;58.70;;;;;;6293788;28;20036;-67
2022/11/08 11:27:57;;;;;;;5.35;1.60;;;19.70;58.70;;;;;;6293497;28;20025;-67
2022/11/08 11:31:01;;;;;;;6.72;1.50;;;19.70;58.90;;;;;;6295600;28;20036;-67
2022/11/08 11:34:17;;;;;;;3.95;1.38;;;19.70;59.10;;;;;;6295279;28;20479;-68
2022/11/08 11:37:24;;;;;;;5.18;1.85;;;19.70;59.10;;;;;;6295060;28;20502;-67
2022/11/08 11:40:35;;;;;;;3.40;1.40;;;19.70;59.20;;;;;;6295141;28;20023;-67
2022/11/08 11:43:46;;;;;;;2.75;1.50;;;19.70;59.10;;;;;;6276151;28;20059;-67
2022/11/08 11:46:57;;;;;;;5.18;1.60;;;19.70;59.10;;;;;;6295253;28;20027;-67
2022/11/08 11:50:11;;;;;;;3.55;1.52;;;19.70;59.20;;;;;;6286280;28;20036;-67
2022/11/08 11:53:26;;;;;;;2.92;1.50;;;19.70;59.10;;;;;;6286966;28;20056;-67
2022/11/08 11:56:39;;;;;;;3.90;1.40;;;19.70;59.30;;;;;;6294742;28;20025;-67
2022/11/08 11:59:49;;;;;;;3.42;1.38;;;19.70;59.30;;;;;;6300285;28;20070;-67
2022/11/08 12:03:11;;;;;;;3.05;1.48;;;19.70;59.40;;;;;;6299764;28;20516;-67
2022/11/08 12:06:27;;;;;;;4.68;1.60;;;19.70;59.40;;;;;;6286358;28;20033;-67
2022/11/08 12:09:40;;;;;;;4.05;1.40;;;19.70;59.40;;;;;;6299970;28;20776;-67
2022/11/08 12:13:17;;;;;;;2.72;1.20;;;19.70;59.40;;;;;;6299260;28;20124;-67
2022/11/08 12:16:23;;;;;;;6.13;1.50;;;19.70;59.50;;;;;;6299508;28;20027;-67
2022/11/08 12:19:23;;;;;;;3.72;1.52;;;19.70;59.40;;;;;;6299589;28;20025;-67
2022/11/08 12:22:59;;;;;;;8.85;1.60;;;19.60;59.50;;;;;;6307396;28;20135;-66
2022/11/08 12:26:05;;;;;;;3.40;1.33;;;19.70;59.60;;;;;;6302282;28;20036;-68
2022/11/08 12:29:41;;;;;;;5.90;1.60;;;19.70;59.60;;;;;;6298978;28;20376;-67
2022/11/08 12:33:19;;;;;;;3.13;1.40;;;19.70;59.40;;;;;;6298898;28;20091;-66
2022/11/08 12:36:22;;;;;;;5.10;1.40;;;19.70;59.60;;;;;;6299126;28;20056;-67
2022/11/08 12:39:35;;;;;;;6.40;1.60;;;19.70;59.50;;;;;;6299761;28;20021;-66
2022/11/08 12:42:58;;;;;;;3.58;1.40;;;19.70;59.70;;;;;;6299056;28;20024;-67
2022/11/08 12:46:11;;;;;;;2.72;1.20;;;19.70;59.60;;;;;;6295985;28;20417;-67
2022/11/08 12:49:34;;;;;;;2.97;1.30;;;19.70;59.70;;;;;;6299319;28;20056;-67
2022/11/08 12:52:47;;;;;;;2.97;1.40;;;19.70;59.60;;;;;;6298043;28;20051;-67
2022/11/08 12:55:50;;;;;;;2.45;1.15;;;19.70;59.70;;;;;;6284585;28;20025;-68
2022/11/08 12:58:53;;;;;;;2.92;1.13;;;19.70;59.70;;;;;;6298135;28;20036;-67
2022/11/08 13:01:54;;;;;;;2.35;1.10;;;19.60;59.60;;;;;;6298749;28;20104;-67
2022/11/08 13:05:15;;;;;;;3.08;1.40;;;19.70;59.60;;;;;;6298764;28;20046;-67
2022/11/08 13:08:39;;;;;;;1.65;1.00;;;19.70;59.60;;;;;;6298177;28;20029;-67
2022/11/08 13:11:43;;;;;;;2.83;1.63;;;19.70;59.60;;;;;;6270385;28;20052;-66
2022/11/08 13:14:44;;;;;;;1.67;1.00;;;19.70;59.60;;;;;;6314135;28;20032;-67
2022/11/08 13:18:08;;;;;;;1.85;0.95;;;19.70;59.70;;;;;;6316721;28;20070;-67
2022/11/08 13:21:27;;;;;;;3.67;1.38;;;19.70;59.70;;;;;;6298596;28;20670;-67
2022/11/08 13:24:32;;;;;;;2.65;1.30;;;19.70;59.70;;;;;;6285360;28;20140;-67
2022/11/08 13:27:33;;;;;;;3.40;1.20;;;19.70;59.80;;;;;;6298076;28;20064;-66
2022/11/08 13:30:37;;;;;;;4.43;1.33;;;19.70;59.70;;;;;;6298896;28;20029;-66
2022/11/08 13:33:46;;;;;;;2.80;1.25;;;19.60;59.70;;;;;;6298203;28;20023;-66
2022/11/08 13:37:18;;;;;;;1.80;1.13;;;19.60;59.70;;;;;;6290100;28;20017;-68
2022/11/08 13:40:30;;;;;;;2.88;1.23;;;19.60;59.70;;;;;;6298050;28;20071;-68
2022/11/08 13:43:33;;;;;;;2.40;1.23;;;19.70;59.70;;;;;;6298035;28;20073;-67
2022/11/08 13:46:34;;;;;;;2.85;1.17;;;19.70;59.70;;;;;;6296962;28;20139;-67
2022/11/08 13:49:34;;;;;;;3.25;1.50;;;19.60;59.70;;;;;;6296561;28;20025;-67
2022/11/08 13:53:00;;;;;;;2.38;1.13;;;19.70;59.60;;;;;;6297871;28;20052;-67
2022/11/08 13:56:03;;;;;;;4.60;1.08;;;19.70;59.50;;;;;;6296171;28;20016;-68
2022/11/08 13:59:30;;;;;;;4.82;1.20;;;19.60;59.30;;;;;;6297412;28;20020;-67
2022/11/08 14:02:31;;;;;;;4.13;1.48;;;19.60;59.20;;;;;;6297377;28;20375;-67
2022/11/08 14:05:44;;;;;;;3.97;2.25;;;19.70;59.20;;;;;;6294128;28;20024;-67
2022/11/08 14:09:09;;;;;;;4.18;2.00;;;19.60;58.90;;;;;;6297463;28;20025;-67
2022/11/08 14:12:31;;;;;;;4.20;1.60;;;19.60;58.70;;;;;;6271681;28;20134;-67
2022/11/08 14:15:50;;;;;;;2.97;1.35;;;19.70;59.00;;;;;;6293753;28;20021;-67
2022/11/08 14:18:51;;;;;;;3.38;1.40;;;19.60;59.00;;;;;;6297375;28;20112;-67
2022/11/08 14:21:59;;;;;;;2.63;1.63;;;19.60;58.70;;;;;;6297339;28;20486;-67
2022/11/08 14:25:12;;;;;;;3.78;1.75;;;19.60;58.60;;;;;;6296918;28;20108;-67
2022/11/08 14:28:29;;;;;;;4.18;1.48;;;19.60;58.60;;;;;;6297274;28;20074;-67
2022/11/08 14:31:32;;;;;;;4.65;1.67;;;19.60;58.70;;;;;;6292577;28;20100;-66
2022/11/08 14:34:35;;;;;;;5.10;2.00;;;19.60;58.70;;;;;;6297539;28;20027;-67
2022/11/08 14:37:36;;;;;;;3.72;1.60;;;19.60;58.60;;;;;;6280108;28;20116;-67
2022/11/08 14:40:37;;;;;;;6.53;1.70;;;19.60;58.50;;;;;;6286468;28;20103;-67
2022/11/08 14:43:45;;;;;;;2.90;1.50;;;19.60;58.60;;;;;;6285557;28;20025;-65
2022/11/08 14:46:47;;;;;;;8.43;1.98;;;19.60;58.50;;;;;;6292785;28;20033;-66
2022/11/08 14:49:48;;;;;;;3.42;1.50;;;19.60;59.20;;;;;;6291889;28;20435;-66
2022/11/08 14:52:49;;;;;;;2.35;1.30;;;19.60;58.50;;;;;;6292822;28;20045;-67
2022/11/08 14:56:06;;;;;;;4.45;1.70;;;19.60;58.40;;;;;;6293845;28;20071;-67
2022/11/08 14:59:10;;;;;;;4.10;1.33;;;19.60;58.50;;;;;;6293443;28;20036;-68
2022/11/08 15:02:11;;;;;;;7.63;1.38;;;19.60;58.90;;;;;;6293801;28;20043;-66
2022/11/08 15:05:27;;;;;;;7.53;1.92;;;19.60;58.70;;;;;;6292678;28;20032;-68
2022/11/08 15:08:31;;;;;;;5.47;2.50;;;19.60;58.80;;;;;;6293368;28;20029;-67
2022/11/08 15:11:36;;;;;;;4.82;2.83;;;19.60;59.20;;;;;;6292319;28;20040;-67
2022/11/08 15:14:53;;;;;;;6.35;3.38;;;19.60;59.20;;;;;;6293619;28;20555;-67
2022/11/08 15:18:14;;;;;;;8.48;3.65;;;19.60;59.30;;;;;;6281567;28;20514;-68
2022/11/08 15:21:30;;;;;;;6.35;3.30;;;19.60;59.30;;;;;;6283296;28;20027;-67
2022/11/08 15:24:38;;;;;;;5.63;3.38;;;19.60;59.40;;;;;;6314157;28;20020;-66
2022/11/08 15:27:47;;;;;;;4.40;2.53;;;19.60;59.40;;;;;;6293318;28;20020;-67
2022/11/08 15:30:55;;;;;;;10.82;2.83;;;19.60;59.40;;;;;;6291913;28;20383;-66
2022/11/08 15:33:56;;;;;;;6.45;2.72;;;19.60;59.30;;;;;;6293185;28;20100;-66
2022/11/08 15:36:56;;;;;;;6.03;2.28;;;19.60;59.40;;;;;;6293336;28;20035;-67
2022/11/08 15:40:01;;;;;;;3.65;2.55;;;19.60;59.50;;;;;;6291924;28;20407;-66
2022/11/08 15:43:02;;;;;;;3.35;2.40;;;19.60;59.60;;;;;;6293491;28;20036;-67
2022/11/08 15:46:04;;;;;;;3.83;2.42;;;19.60;59.50;;;;;;6292651;28;20044;-67
2022/11/08 15:49:15;;;;;;;3.67;2.28;;;19.60;59.50;;;;;;6292895;28;20021;-67
2022/11/08 15:52:16;;;;;;;5.22;2.40;;;19.60;59.70;;;;;;6288404;28;20408;-67
2022/11/08 15:55:22;;;;;;;4.20;2.08;;;19.60;59.60;;;;;;6292610;28;20025;-67
2022/11/08 15:58:23;;;;;;;3.95;2.10;;;19.60;59.70;;;;;;6292793;28;20029;-67
2022/11/08 16:01:23;;;;;;;6.38;2.20;;;19.60;59.60;;;;;;6291891;28;20074;-66
2022/11/08 16:04:24;;;;;;;3.20;1.88;;;19.60;59.70;;;;;;6285817;28;20048;-67
2022/11/08 16:07:24;;;;;;;3.40;1.90;;;19.60;59.70;;;;;;6287330;28;20039;-66
2022/11/08 16:10:35;;;;;;;2.42;1.50;;;19.60;59.70;;;;;;6278442;28;20025;-67
2022/11/08 16:13:37;;;;;;;2.25;1.83;;;19.60;59.80;;;;;;6267773;28;20413;-68
2022/11/08 16:16:38;;;;;;;3.25;2.08;;;19.60;59.70;;;;;;6292012;28;20024;-67
2022/11/08 16:19:39;;;;;;;3.60;2.35;;;19.60;59.70;;;;;;6268340;28;20028;-67
2022/11/08 16:22:39;;;;;;;2.42;1.67;;;19.60;59.70;;;;;;6286779;28;20032;-67
2022/11/08 16:25:44;;;;;;;6.63;2.25;;;19.60;59.80;;;;;;6292087;28;20036;-67
2022/11/08 16:28:44;;;;;;;2.07;1.30;;;19.60;59.70;;;;;;6291510;28;20043;-67